EGTE/EXT METAR and TAF weather

Enter ICAO airport designator
Station Type Date Time Source
EGTE METAR 2020/07/06 09:20 UTC NOAA

EGTE 060920Z 28013KT 9999 SCT026 15/09 Q1022


Station Type Date Time Source
EGTE Decoded METAR 2020/07/06 09:20 UTC NOAA

Exeter Airport, United Kingdom (EGTE) 50-44N 003-25W
Jul 06, 2020 - 05:20 AM EDT / 2020.07.06 0920 UTC
Wind: from the W (280 degrees) at 15 MPH (13 KT):0
Visibility: greater than 7 mile(s):0
Sky conditions: partly cloudy
Temperature: 59 F (15 C)
Dew Point: 48 F (9 C)
Relative Humidity: 67%
Pressure (altimeter): 30.18 in. Hg (1022 hPa)
ob: EGTE 060920Z 28013KT 9999 SCT026 15/09 Q1022
cycle: 9

Station Type Date Time Source
EGTE TAF 2012/04/19 12:15 UTC NOAA

TAF TAF EGTE 191401Z 1912/1924 31016KT 9999 SCT030 SCT035 PROB40
TEMPO 1915/1918 7000 SHRA BKN014

Example: see airport list